sensor_id;sensor_type;location;lat;lon;timestamp;P1;durP1;ratioP1;P2;durP2;ratioP2
75311;SDS011;63906;55.686;37.532;2023-12-20T00:02:29;2.03;;;1.20;;
75311;SDS011;63906;55.686;37.532;2023-12-20T00:07:29;1.40;;;1.03;;
75311;SDS011;63906;55.686;37.532;2023-12-20T00:12:30;2.23;;;1.00;;
75311;SDS011;63906;55.686;37.532;2023-12-20T00:17:30;2.87;;;1.00;;
75311;SDS011;63906;55.686;37.532;2023-12-20T00:22:31;1.63;;;1.00;;
75311;SDS011;63906;55.686;37.532;2023-12-20T00:27:31;1.73;;;1.20;;
75311;SDS011;63906;55.686;37.532;2023-12-20T00:32:32;1.87;;;1.27;;
75311;SDS011;63906;55.686;37.532;2023-12-20T00:37:32;2.37;;;1.53;;
75311;SDS011;63906;55.686;37.532;2023-12-20T00:42:33;2.03;;;1.38;;
75311;SDS011;63906;55.686;37.532;2023-12-20T00:47:33;2.47;;;1.40;;
75311;SDS011;63906;55.686;37.532;2023-12-20T00:52:34;3.83;;;1.67;;
75311;SDS011;63906;55.686;37.532;2023-12-20T00:57:34;3.50;;;1.27;;
75311;SDS011;63906;55.686;37.532;2023-12-20T01:02:35;2.78;;;1.52;;
75311;SDS011;63906;55.686;37.532;2023-12-20T01:07:35;2.70;;;1.33;;
75311;SDS011;63906;55.686;37.532;2023-12-20T01:12:36;1.65;;;1.13;;
75311;SDS011;63906;55.686;37.532;2023-12-20T01:17:37;1.85;;;1.30;;
75311;SDS011;63906;55.686;37.532;2023-12-20T01:22:37;2.50;;;1.37;;
75311;SDS011;63906;55.686;37.532;2023-12-20T01:27:38;1.65;;;1.00;;
75311;SDS011;63906;55.686;37.532;2023-12-20T01:32:38;1.67;;;1.02;;
75311;SDS011;63906;55.686;37.532;2023-12-20T01:37:38;1.97;;;0.80;;
75311;SDS011;63906;55.686;37.532;2023-12-20T01:42:39;1.38;;;1.00;;
75311;SDS011;63906;55.686;37.532;2023-12-20T01:47:39;1.67;;;1.00;;
75311;SDS011;63906;55.686;37.532;2023-12-20T01:52:41;2.28;;;0.85;;
75311;SDS011;63906;55.686;37.532;2023-12-20T01:57:43;1.98;;;1.02;;
75311;SDS011;63906;55.686;37.532;2023-12-20T02:02:44;1.25;;;0.70;;
75311;SDS011;63906;55.686;37.532;2023-12-20T02:07:46;1.35;;;0.70;;
75311;SDS011;63906;55.686;37.532;2023-12-20T02:12:46;1.00;;;0.60;;
75311;SDS011;63906;55.686;37.532;2023-12-20T02:17:47;1.70;;;0.50;;
75311;SDS011;63906;55.686;37.532;2023-12-20T02:22:48;0.88;;;0.52;;
75311;SDS011;63906;55.686;37.532;2023-12-20T02:27:48;1.07;;;0.50;;
75311;SDS011;63906;55.686;37.532;2023-12-20T02:32:50;1.92;;;0.60;;
75311;SDS011;63906;55.686;37.532;2023-12-20T02:37:51;0.88;;;0.50;;
75311;SDS011;63906;55.686;37.532;2023-12-20T02:42:51;1.53;;;0.67;;
75311;SDS011;63906;55.686;37.532;2023-12-20T02:47:52;2.10;;;1.60;;
75311;SDS011;63906;55.686;37.532;2023-12-20T02:52:52;0.97;;;0.60;;
75311;SDS011;63906;55.686;37.532;2023-12-20T02:57:53;1.50;;;0.73;;
75311;SDS011;63906;55.686;37.532;2023-12-20T03:02:53;2.57;;;1.30;;
75311;SDS011;63906;55.686;37.532;2023-12-20T03:07:54;1.77;;;1.20;;
75311;SDS011;63906;55.686;37.532;2023-12-20T03:12:54;2.47;;;1.23;;
75311;SDS011;63906;55.686;37.532;2023-12-20T03:17:55;3.33;;;1.50;;
75311;SDS011;63906;55.686;37.532;2023-12-20T03:22:55;2.20;;;1.20;;
75311;SDS011;63906;55.686;37.532;2023-12-20T03:27:56;1.77;;;1.00;;
75311;SDS011;63906;55.686;37.532;2023-12-20T03:32:56;1.87;;;1.27;;
75311;SDS011;63906;55.686;37.532;2023-12-20T03:37:56;2.37;;;1.17;;
75311;SDS011;63906;55.686;37.532;2023-12-20T03:42:57;2.25;;;1.45;;
75311;SDS011;63906;55.686;37.532;2023-12-20T03:47:58;3.35;;;1.90;;
75311;SDS011;63906;55.686;37.532;2023-12-20T03:52:58;3.70;;;1.77;;
75311;SDS011;63906;55.686;37.532;2023-12-20T03:57:59;4.40;;;2.23;;
75311;SDS011;63906;55.686;37.532;2023-12-20T04:02:59;3.60;;;2.50;;
75311;SDS011;63906;55.686;37.532;2023-12-20T04:08:01;4.03;;;2.30;;
75311;SDS011;63906;55.686;37.532;2023-12-20T04:13:02;3.00;;;1.80;;
75311;SDS011;63906;55.686;37.532;2023-12-20T04:18:02;5.28;;;2.35;;
75311;SDS011;63906;55.686;37.532;2023-12-20T04:23:03;5.28;;;2.05;;
75311;SDS011;63906;55.686;37.532;2023-12-20T04:28:03;4.45;;;2.20;;
75311;SDS011;63906;55.686;37.532;2023-12-20T04:33:04;4.45;;;2.03;;
75311;SDS011;63906;55.686;37.532;2023-12-20T04:38:04;5.22;;;2.30;;
75311;SDS011;63906;55.686;37.532;2023-12-20T04:43:05;4.72;;;2.38;;
75311;SDS011;63906;55.686;37.532;2023-12-20T04:48:06;3.50;;;2.00;;
75311;SDS011;63906;55.686;37.532;2023-12-20T04:53:06;2.88;;;1.80;;
75311;SDS011;63906;55.686;37.532;2023-12-20T04:58:07;3.28;;;1.95;;
75311;SDS011;63906;55.686;37.532;2023-12-20T05:03:07;2.83;;;1.35;;
75311;SDS011;63906;55.686;37.532;2023-12-20T05:08:09;5.15;;;1.48;;
75311;SDS011;63906;55.686;37.532;2023-12-20T05:13:10;3.17;;;1.53;;
75311;SDS011;63906;55.686;37.532;2023-12-20T05:18:10;2.97;;;1.40;;
75311;SDS011;63906;55.686;37.532;2023-12-20T05:23:11;3.90;;;1.50;;
75311;SDS011;63906;55.686;37.532;2023-12-20T05:28:13;2.38;;;1.30;;
75311;SDS011;63906;55.686;37.532;2023-12-20T05:33:13;5.37;;;1.90;;
75311;SDS011;63906;55.686;37.532;2023-12-20T05:38:14;3.67;;;1.80;;
75311;SDS011;63906;55.686;37.532;2023-12-20T05:43:14;4.30;;;2.15;;
75311;SDS011;63906;55.686;37.532;2023-12-20T05:48:15;3.27;;;1.70;;
75311;SDS011;63906;55.686;37.532;2023-12-20T05:53:15;4.13;;;2.00;;
75311;SDS011;63906;55.686;37.532;2023-12-20T05:58:16;4.73;;;2.30;;
75311;SDS011;63906;55.686;37.532;2023-12-20T06:03:16;3.87;;;2.20;;
75311;SDS011;63906;55.686;37.532;2023-12-20T06:08:17;3.67;;;1.87;;
75311;SDS011;63906;55.686;37.532;2023-12-20T06:13:17;4.88;;;2.35;;
75311;SDS011;63906;55.686;37.532;2023-12-20T06:18:17;4.43;;;2.07;;
75311;SDS011;63906;55.686;37.532;2023-12-20T06:23:18;4.83;;;2.00;;
75311;SDS011;63906;55.686;37.532;2023-12-20T06:28:18;2.67;;;1.90;;
75311;SDS011;63906;55.686;37.532;2023-12-20T06:33:19;5.77;;;1.80;;
75311;SDS011;63906;55.686;37.532;2023-12-20T06:38:21;3.80;;;1.67;;
75311;SDS011;63906;55.686;37.532;2023-12-20T06:43:22;4.35;;;1.60;;
75311;SDS011;63906;55.686;37.532;2023-12-20T06:48:22;4.00;;;1.83;;
75311;SDS011;63906;55.686;37.532;2023-12-20T06:53:23;3.43;;;1.60;;
75311;SDS011;63906;55.686;37.532;2023-12-20T06:58:23;4.53;;;2.10;;
75311;SDS011;63906;55.686;37.532;2023-12-20T07:03:23;2.87;;;1.80;;
75311;SDS011;63906;55.686;37.532;2023-12-20T07:08:24;5.23;;;1.97;;
75311;SDS011;63906;55.686;37.532;2023-12-20T07:13:24;3.60;;;1.57;;
75311;SDS011;63906;55.686;37.532;2023-12-20T07:18:25;2.43;;;1.50;;
75311;SDS011;63906;55.686;37.532;2023-12-20T07:23:25;2.72;;;1.42;;
75311;SDS011;63906;55.686;37.532;2023-12-20T07:28:26;2.97;;;1.80;;
75311;SDS011;63906;55.686;37.532;2023-12-20T07:33:27;2.57;;;1.67;;
75311;SDS011;63906;55.686;37.532;2023-12-20T07:38:27;6.03;;;1.83;;
75311;SDS011;63906;55.686;37.532;2023-12-20T07:43:28;3.63;;;1.70;;
75311;SDS011;63906;55.686;37.532;2023-12-20T07:48:28;3.05;;;1.35;;
75311;SDS011;63906;55.686;37.532;2023-12-20T07:53:29;3.20;;;1.40;;
75311;SDS011;63906;55.686;37.532;2023-12-20T07:58:29;3.33;;;1.20;;
75311;SDS011;63906;55.686;37.532;2023-12-20T08:03:31;1.88;;;1.13;;
75311;SDS011;63906;55.686;37.532;2023-12-20T08:08:31;2.92;;;1.35;;
75311;SDS011;63906;55.686;37.532;2023-12-20T08:13:32;3.07;;;1.50;;
75311;SDS011;63906;55.686;37.532;2023-12-20T08:18:32;2.47;;;1.30;;
75311;SDS011;63906;55.686;37.532;2023-12-20T08:23:34;2.85;;;1.42;;
75311;SDS011;63906;55.686;37.532;2023-12-20T08:28:34;4.25;;;1.58;;
75311;SDS011;63906;55.686;37.532;2023-12-20T08:33:36;2.78;;;1.30;;
75311;SDS011;63906;55.686;37.532;2023-12-20T08:38:37;2.80;;;1.50;;
75311;SDS011;63906;55.686;37.532;2023-12-20T08:43:37;3.38;;;1.73;;
75311;SDS011;63906;55.686;37.532;2023-12-20T08:48:40;2.42;;;1.52;;
75311;SDS011;63906;55.686;37.532;2023-12-20T08:53:40;3.03;;;1.87;;
75311;SDS011;63906;55.686;37.532;2023-12-20T08:58:41;2.90;;;1.50;;
75311;SDS011;63906;55.686;37.532;2023-12-20T09:03:42;2.83;;;1.47;;
75311;SDS011;63906;55.686;37.532;2023-12-20T09:08:43;2.72;;;1.50;;
75311;SDS011;63906;55.686;37.532;2023-12-20T09:13:43;4.00;;;1.80;;
75311;SDS011;63906;55.686;37.532;2023-12-20T09:18:44;3.25;;;1.63;;
75311;SDS011;63906;55.686;37.532;2023-12-20T09:23:45;4.60;;;1.97;;
75311;SDS011;63906;55.686;37.532;2023-12-20T09:28:45;4.07;;;2.03;;
75311;SDS011;63906;55.686;37.532;2023-12-20T09:33:46;3.55;;;2.25;;
75311;SDS011;63906;55.686;37.532;2023-12-20T09:38:46;5.57;;;2.83;;
75311;SDS011;63906;55.686;37.532;2023-12-20T09:43:47;3.77;;;2.07;;
75311;SDS011;63906;55.686;37.532;2023-12-20T09:48:49;2.47;;;1.60;;
75311;SDS011;63906;55.686;37.532;2023-12-20T09:53:50;3.45;;;1.70;;
75311;SDS011;63906;55.686;37.532;2023-12-20T09:58:54;3.25;;;1.67;;
75311;SDS011;63906;55.686;37.532;2023-12-20T10:03:55;2.08;;;1.42;;
75311;SDS011;63906;55.686;37.532;2023-12-20T10:08:56;3.20;;;1.40;;
75311;SDS011;63906;55.686;37.532;2023-12-20T10:14:00;2.95;;;1.40;;
75311;SDS011;63906;55.686;37.532;2023-12-20T10:19:01;2.05;;;0.93;;
75311;SDS011;63906;55.686;37.532;2023-12-20T10:24:02;1.60;;;1.13;;
75311;SDS011;63906;55.686;37.532;2023-12-20T10:29:03;2.72;;;1.40;;
75311;SDS011;63906;55.686;37.532;2023-12-20T10:34:05;2.33;;;1.02;;
75311;SDS011;63906;55.686;37.532;2023-12-20T10:39:06;1.60;;;1.25;;
75311;SDS011;63906;55.686;37.532;2023-12-20T10:44:11;1.75;;;1.10;;
75311;SDS011;63906;55.686;37.532;2023-12-20T10:49:14;2.88;;;1.40;;
75311;SDS011;63906;55.686;37.532;2023-12-20T10:54:16;1.73;;;1.00;;
75311;SDS011;63906;55.686;37.532;2023-12-20T10:59:16;1.23;;;0.90;;
75311;SDS011;63906;55.686;37.532;2023-12-20T11:04:22;2.88;;;1.58;;
75311;SDS011;63906;55.686;37.532;2023-12-20T11:09:34;1.27;;;0.95;;
75311;SDS011;63906;55.686;37.532;2023-12-20T11:25:04;2.00;;;1.35;;
75311;SDS011;63906;55.686;37.532;2023-12-20T11:30:09;2.72;;;1.45;;
75311;SDS011;63906;55.686;37.532;2023-12-20T11:40:14;2.35;;;1.40;;
75311;SDS011;63906;55.686;37.532;2023-12-20T11:45:16;2.03;;;1.10;;
75311;SDS011;63906;55.686;37.532;2023-12-20T11:50:25;2.83;;;1.25;;
75311;SDS011;63906;55.686;37.532;2023-12-20T11:55:26;1.55;;;1.10;;
75311;SDS011;63906;55.686;37.532;2023-12-20T12:00:27;2.40;;;1.20;;
75311;SDS011;63906;55.686;37.532;2023-12-20T12:05:27;1.63;;;1.10;;
75311;SDS011;63906;55.686;37.532;2023-12-20T12:10:31;4.30;;;1.30;;
75311;SDS011;63906;55.686;37.532;2023-12-20T12:15:43;1.88;;;1.02;;
75311;SDS011;63906;55.686;37.532;2023-12-20T12:20:48;3.90;;;1.17;;
75311;SDS011;63906;55.686;37.532;2023-12-20T12:25:48;2.20;;;1.02;;
75311;SDS011;63906;55.686;37.532;2023-12-20T12:30:58;2.57;;;1.20;;
75311;SDS011;63906;55.686;37.532;2023-12-20T12:36:00;1.90;;;1.30;;
75311;SDS011;63906;55.686;37.532;2023-12-20T12:41:01;1.83;;;1.05;;
75311;SDS011;63906;55.686;37.532;2023-12-20T12:46:02;2.42;;;1.27;;
75311;SDS011;63906;55.686;37.532;2023-12-20T12:51:02;2.07;;;1.00;;
75311;SDS011;63906;55.686;37.532;2023-12-20T12:56:03;1.27;;;0.80;;
75311;SDS011;63906;55.686;37.532;2023-12-20T13:01:04;1.65;;;1.02;;
75311;SDS011;63906;55.686;37.532;2023-12-20T13:06:04;2.15;;;1.00;;
75311;SDS011;63906;55.686;37.532;2023-12-20T13:11:12;2.50;;;1.40;;
75311;SDS011;63906;55.686;37.532;2023-12-20T13:16:15;2.30;;;1.10;;
75311;SDS011;63906;55.686;37.532;2023-12-20T13:21:16;1.60;;;1.08;;
75311;SDS011;63906;55.686;37.532;2023-12-20T13:26:17;1.77;;;0.98;;
75311;SDS011;63906;55.686;37.532;2023-12-20T13:31:17;2.45;;;1.10;;
75311;SDS011;63906;55.686;37.532;2023-12-20T13:36:18;1.38;;;1.15;;
75311;SDS011;63906;55.686;37.532;2023-12-20T13:41:19;1.10;;;0.90;;
75311;SDS011;63906;55.686;37.532;2023-12-20T13:46:19;1.37;;;0.90;;
75311;SDS011;63906;55.686;37.532;2023-12-20T13:51:20;2.50;;;1.20;;
75311;SDS011;63906;55.686;37.532;2023-12-20T13:56:21;1.40;;;0.90;;
75311;SDS011;63906;55.686;37.532;2023-12-20T14:01:24;2.00;;;1.10;;
75311;SDS011;63906;55.686;37.532;2023-12-20T14:06:25;2.55;;;0.80;;
75311;SDS011;63906;55.686;37.532;2023-12-20T14:11:25;1.70;;;1.00;;
75311;SDS011;63906;55.686;37.532;2023-12-20T14:16:29;2.30;;;0.98;;
75311;SDS011;63906;55.686;37.532;2023-12-20T14:21:29;1.73;;;1.00;;
75311;SDS011;63906;55.686;37.532;2023-12-20T14:26:30;1.57;;;1.03;;
75311;SDS011;63906;55.686;37.532;2023-12-20T14:31:31;1.75;;;1.10;;
75311;SDS011;63906;55.686;37.532;2023-12-20T14:36:32;1.40;;;1.00;;
75311;SDS011;63906;55.686;37.532;2023-12-20T14:41:32;1.52;;;1.05;;
75311;SDS011;63906;55.686;37.532;2023-12-20T14:46:33;1.40;;;1.03;;
75311;SDS011;63906;55.686;37.532;2023-12-20T14:51:33;2.43;;;1.20;;
75311;SDS011;63906;55.686;37.532;2023-12-20T14:56:34;1.67;;;1.30;;
75311;SDS011;63906;55.686;37.532;2023-12-20T15:01:35;2.65;;;1.00;;
75311;SDS011;63906;55.686;37.532;2023-12-20T15:06:36;2.55;;;1.20;;
75311;SDS011;63906;55.686;37.532;2023-12-20T15:11:37;3.70;;;1.40;;
75311;SDS011;63906;55.686;37.532;2023-12-20T15:16:37;4.10;;;1.40;;
75311;SDS011;63906;55.686;37.532;2023-12-20T15:21:38;4.07;;;1.57;;
75311;SDS011;63906;55.686;37.532;2023-12-20T15:26:42;4.05;;;1.60;;
75311;SDS011;63906;55.686;37.532;2023-12-20T15:31:44;1.95;;;1.40;;
75311;SDS011;63906;55.686;37.532;2023-12-20T15:36:46;2.33;;;1.50;;
75311;SDS011;63906;55.686;37.532;2023-12-20T15:41:47;2.40;;;1.30;;
75311;SDS011;63906;55.686;37.532;2023-12-20T15:46:47;1.52;;;1.15;;
75311;SDS011;63906;55.686;37.532;2023-12-20T15:51:47;3.63;;;1.87;;
75311;SDS011;63906;55.686;37.532;2023-12-20T15:56:48;2.10;;;1.33;;
75311;SDS011;63906;55.686;37.532;2023-12-20T16:01:48;1.80;;;1.20;;
75311;SDS011;63906;55.686;37.532;2023-12-20T16:06:49;2.87;;;1.70;;
75311;SDS011;63906;55.686;37.532;2023-12-20T16:11:49;2.93;;;1.53;;
75311;SDS011;63906;55.686;37.532;2023-12-20T16:16:50;2.27;;;1.40;;
75311;SDS011;63906;55.686;37.532;2023-12-20T16:21:50;2.57;;;1.60;;
75311;SDS011;63906;55.686;37.532;2023-12-20T16:26:51;2.85;;;1.38;;
75311;SDS011;63906;55.686;37.532;2023-12-20T16:31:51;2.13;;;1.23;;
75311;SDS011;63906;55.686;37.532;2023-12-20T16:36:52;1.33;;;0.97;;
75311;SDS011;63906;55.686;37.532;2023-12-20T16:41:54;1.67;;;0.95;;
75311;SDS011;63906;55.686;37.532;2023-12-20T16:46:54;2.05;;;1.10;;
75311;SDS011;63906;55.686;37.532;2023-12-20T16:51:55;1.90;;;1.23;;
75311;SDS011;63906;55.686;37.532;2023-12-20T16:56:56;2.53;;;1.23;;
75311;SDS011;63906;55.686;37.532;2023-12-20T17:01:56;1.40;;;1.20;;
75311;SDS011;63906;55.686;37.532;2023-12-20T17:06:57;2.40;;;1.25;;
75311;SDS011;63906;55.686;37.532;2023-12-20T17:11:57;4.93;;;1.50;;
75311;SDS011;63906;55.686;37.532;2023-12-20T17:16:58;2.67;;;1.27;;
75311;SDS011;63906;55.686;37.532;2023-12-20T17:21:58;2.22;;;1.10;;
75311;SDS011;63906;55.686;37.532;2023-12-20T17:26:59;2.28;;;1.15;;
75311;SDS011;63906;55.686;37.532;2023-12-20T17:31:59;1.90;;;1.08;;
75311;SDS011;63906;55.686;37.532;2023-12-20T17:37:00;2.43;;;0.87;;
75311;SDS011;63906;55.686;37.532;2023-12-20T17:42:00;2.15;;;1.40;;
75311;SDS011;63906;55.686;37.532;2023-12-20T17:47:01;2.15;;;1.25;;
75311;SDS011;63906;55.686;37.532;2023-12-20T17:52:02;3.20;;;1.42;;
75311;SDS011;63906;55.686;37.532;2023-12-20T17:57:06;1.98;;;0.85;;
75311;SDS011;63906;55.686;37.532;2023-12-20T18:02:06;2.07;;;0.93;;
75311;SDS011;63906;55.686;37.532;2023-12-20T18:07:07;2.15;;;1.15;;
75311;SDS011;63906;55.686;37.532;2023-12-20T18:12:07;1.90;;;1.10;;
75311;SDS011;63906;55.686;37.532;2023-12-20T18:17:08;2.70;;;1.50;;
75311;SDS011;63906;55.686;37.532;2023-12-20T18:22:08;2.83;;;1.20;;
75311;SDS011;63906;55.686;37.532;2023-12-20T18:27:09;3.35;;;1.85;;
75311;SDS011;63906;55.686;37.532;2023-12-20T18:32:10;1.80;;;1.00;;
75311;SDS011;63906;55.686;37.532;2023-12-20T18:37:11;2.50;;;1.10;;
75311;SDS011;63906;55.686;37.532;2023-12-20T18:42:11;4.00;;;1.60;;
75311;SDS011;63906;55.686;37.532;2023-12-20T18:47:12;1.57;;;1.10;;
75311;SDS011;63906;55.686;37.532;2023-12-20T18:52:13;2.38;;;1.30;;
75311;SDS011;63906;55.686;37.532;2023-12-20T18:57:13;2.10;;;1.55;;
75311;SDS011;63906;55.686;37.532;2023-12-20T19:02:14;2.23;;;1.10;;
75311;SDS011;63906;55.686;37.532;2023-12-20T19:07:14;2.57;;;1.27;;
75311;SDS011;63906;55.686;37.532;2023-12-20T19:12:15;2.88;;;1.50;;
75311;SDS011;63906;55.686;37.532;2023-12-20T19:17:16;3.38;;;1.25;;
75311;SDS011;63906;55.686;37.532;2023-12-20T19:22:17;1.93;;;1.20;;
75311;SDS011;63906;55.686;37.532;2023-12-20T19:27:17;3.60;;;1.30;;
75311;SDS011;63906;55.686;37.532;2023-12-20T19:32:18;2.77;;;1.77;;
75311;SDS011;63906;55.686;37.532;2023-12-20T19:37:18;1.63;;;1.00;;
75311;SDS011;63906;55.686;37.532;2023-12-20T19:42:19;1.45;;;1.00;;
75311;SDS011;63906;55.686;37.532;2023-12-20T19:47:19;3.10;;;1.05;;
75311;SDS011;63906;55.686;37.532;2023-12-20T19:52:20;1.87;;;1.13;;
75311;SDS011;63906;55.686;37.532;2023-12-20T19:57:20;1.60;;;1.00;;
75311;SDS011;63906;55.686;37.532;2023-12-20T20:02:24;2.80;;;1.30;;
75311;SDS011;63906;55.686;37.532;2023-12-20T20:07:24;3.22;;;1.33;;
75311;SDS011;63906;55.686;37.532;2023-12-20T20:12:25;3.08;;;1.60;;
75311;SDS011;63906;55.686;37.532;2023-12-20T20:17:26;2.20;;;1.20;;
75311;SDS011;63906;55.686;37.532;2023-12-20T20:22:27;1.30;;;1.00;;
75311;SDS011;63906;55.686;37.532;2023-12-20T20:27:27;1.05;;;0.90;;
75311;SDS011;63906;55.686;37.532;2023-12-20T20:32:28;1.50;;;1.00;;
75311;SDS011;63906;55.686;37.532;2023-12-20T20:37:28;2.00;;;1.40;;
75311;SDS011;63906;55.686;37.532;2023-12-20T20:42:29;3.00;;;1.80;;
75311;SDS011;63906;55.686;37.532;2023-12-20T20:47:29;1.85;;;1.13;;
75311;SDS011;63906;55.686;37.532;2023-12-20T20:52:29;3.73;;;1.43;;
75311;SDS011;63906;55.686;37.532;2023-12-20T20:57:30;3.47;;;1.50;;
75311;SDS011;63906;55.686;37.532;2023-12-20T21:02:30;3.57;;;1.67;;
75311;SDS011;63906;55.686;37.532;2023-12-20T21:07:31;2.65;;;1.40;;
75311;SDS011;63906;55.686;37.532;2023-12-20T21:12:33;3.60;;;1.58;;
75311;SDS011;63906;55.686;37.532;2023-12-20T21:17:33;2.25;;;1.40;;
75311;SDS011;63906;55.686;37.532;2023-12-20T21:22:34;3.53;;;1.70;;
75311;SDS011;63906;55.686;37.532;2023-12-20T21:27:34;2.97;;;1.30;;
75311;SDS011;63906;55.686;37.532;2023-12-20T21:32:36;2.67;;;1.35;;
75311;SDS011;63906;55.686;37.532;2023-12-20T21:37:37;2.85;;;1.27;;
75311;SDS011;63906;55.686;37.532;2023-12-20T21:42:38;1.83;;;1.00;;
75311;SDS011;63906;55.686;37.532;2023-12-20T21:47:38;2.37;;;1.53;;
75311;SDS011;63906;55.686;37.532;2023-12-20T21:52:39;3.67;;;2.55;;
75311;SDS011;63906;55.686;37.532;2023-12-20T21:57:39;5.57;;;2.60;;
75311;SDS011;63906;55.686;37.532;2023-12-20T22:02:40;3.40;;;2.30;;
75311;SDS011;63906;55.686;37.532;2023-12-20T22:07:40;4.82;;;2.53;;
75311;SDS011;63906;55.686;37.532;2023-12-20T22:12:43;3.80;;;2.42;;
75311;SDS011;63906;55.686;37.532;2023-12-20T22:17:44;6.10;;;3.15;;
75311;SDS011;63906;55.686;37.532;2023-12-20T22:22:44;8.53;;;3.93;;
75311;SDS011;63906;55.686;37.532;2023-12-20T22:27:45;6.65;;;3.53;;
75311;SDS011;63906;55.686;37.532;2023-12-20T22:32:45;7.45;;;3.55;;
75311;SDS011;63906;55.686;37.532;2023-12-20T22:37:46;6.57;;;3.25;;
75311;SDS011;63906;55.686;37.532;2023-12-20T22:42:46;5.05;;;2.55;;
75311;SDS011;63906;55.686;37.532;2023-12-20T22:47:47;6.85;;;3.00;;
75311;SDS011;63906;55.686;37.532;2023-12-20T22:52:47;7.03;;;3.15;;
75311;SDS011;63906;55.686;37.532;2023-12-20T22:57:48;7.07;;;2.97;;
75311;SDS011;63906;55.686;37.532;2023-12-20T23:02:48;4.53;;;2.20;;
75311;SDS011;63906;55.686;37.532;2023-12-20T23:07:49;4.77;;;2.23;;
75311;SDS011;63906;55.686;37.532;2023-12-20T23:12:50;4.82;;;2.28;;
75311;SDS011;63906;55.686;37.532;2023-12-20T23:17:50;4.35;;;2.35;;
75311;SDS011;63906;55.686;37.532;2023-12-20T23:22:53;5.15;;;1.88;;
75311;SDS011;63906;55.686;37.532;2023-12-20T23:27:54;4.57;;;1.90;;
75311;SDS011;63906;55.686;37.532;2023-12-20T23:32:54;4.40;;;1.80;;
75311;SDS011;63906;55.686;37.532;2023-12-20T23:37:55;2.65;;;1.50;;
75311;SDS011;63906;55.686;37.532;2023-12-20T23:42:56;2.77;;;1.50;;
75311;SDS011;63906;55.686;37.532;2023-12-20T23:47:56;2.53;;;1.53;;
75311;SDS011;63906;55.686;37.532;2023-12-20T23:52:57;2.35;;;1.30;;
75311;SDS011;63906;55.686;37.532;2023-12-20T23:57:57;2.47;;;1.27;;
